<?xml version="1.0" encoding="UTF-8" standalone="no" ?>
<gpx xmlns="http://www.topografix.com/GPX/1/1" xmlns:xsi="http://www.w3.org/2001/XMLSchema-instance" xsi:schemaLocation="http://www.topografix.com/GPX/1/1 http://www.topografix.com/GPX/1/1/gpx.xsd" version="1.1" creator="VisuGPX - https://www.visugpx.com">
  <metadata>
    <name>Cala Gonone</name>
    <desc><![CDATA[Bonne descente sur Cala Gonone (Sardaigne). Niveau 3, assez cassant au milieu. Départ depuis le km193 de la route de Dorgali.]]></desc>
  </metadata>
  <trk>
    <name><![CDATA[Cala Gonone]]></name>
    <trkseg>
      <trkpt lat="40.21279" lon="9.55085">
        <ele>770</ele>
        <time>2012-11-05T15:06:00Z</time>
      </trkpt>
      <trkpt lat="40.21278" lon="9.55081">
        <ele>770</ele>
        <time>2012-11-05T15:09:10Z</time>
      </trkpt>
      <trkpt lat="40.21279" lon="9.55087">
        <ele>770</ele>
        <time>2012-11-05T15:06:00Z</time>
      </trkpt>
      <trkpt lat="40.21295" lon="9.55108">
        <ele>771</ele>
        <time>2012-11-05T15:10:27Z</time>
      </trkpt>
      <trkpt lat="40.21329" lon="9.55142">
        <ele>772.3</ele>
        <time>2012-11-05T15:10:41Z</time>
      </trkpt>
      <trkpt lat="40.21331" lon="9.55151">
        <ele>772.3</ele>
        <time>2012-11-05T15:10:49Z</time>
      </trkpt>
      <trkpt lat="40.21356" lon="9.55182">
        <ele>776</ele>
        <time>2012-11-05T15:11:32Z</time>
      </trkpt>
      <trkpt lat="40.21361" lon="9.55195">
        <ele>776.4</ele>
        <time>2012-11-05T15:06:00Z</time>
      </trkpt>
      <trkpt lat="40.21373" lon="9.55206">
        <ele>776.8</ele>
        <time>2012-11-05T15:11:54Z</time>
      </trkpt>
      <trkpt lat="40.21379" lon="9.55217">
        <ele>780</ele>
        <time>2012-11-05T15:12:05Z</time>
      </trkpt>
      <trkpt lat="40.21391" lon="9.5522">
        <ele>784.1</ele>
        <time>2012-11-05T15:06:00Z</time>
      </trkpt>
      <trkpt lat="40.21394" lon="9.55227">
        <ele>785.7</ele>
        <time>2012-11-05T15:12:25Z</time>
      </trkpt>
      <trkpt lat="40.214" lon="9.55231">
        <ele>789.1</ele>
        <time>2012-11-05T15:12:39Z</time>
      </trkpt>
      <trkpt lat="40.21407" lon="9.55242">
        <ele>790.5</ele>
        <time>2012-11-05T15:12:51Z</time>
      </trkpt>
      <trkpt lat="40.21417" lon="9.55244">
        <ele>792.4</ele>
        <time>2012-11-05T15:06:00Z</time>
      </trkpt>
      <trkpt lat="40.21428" lon="9.55255">
        <ele>798.2</ele>
        <time>2012-11-05T15:13:54Z</time>
      </trkpt>
      <trkpt lat="40.2146" lon="9.55264">
        <ele>799.5</ele>
        <time>2012-11-05T15:14:01Z</time>
      </trkpt>
      <trkpt lat="40.21466" lon="9.5527">
        <ele>800.1</ele>
        <time>2012-11-05T15:06:00Z</time>
      </trkpt>
      <trkpt lat="40.21483" lon="9.55316">
        <ele>809.8</ele>
        <time>2012-11-05T15:16:14Z</time>
      </trkpt>
      <trkpt lat="40.21505" lon="9.55331">
        <ele>809.9</ele>
        <time>2012-11-05T15:16:23Z</time>
      </trkpt>
      <trkpt lat="40.21506" lon="9.55336">
        <ele>809.9</ele>
        <time>2012-11-05T15:06:00Z</time>
      </trkpt>
      <trkpt lat="40.21516" lon="9.5534">
        <ele>810.9</ele>
        <time>2012-11-05T15:16:32Z</time>
      </trkpt>
      <trkpt lat="40.21532" lon="9.55353">
        <ele>812.5</ele>
        <time>2012-11-05T15:06:00Z</time>
      </trkpt>
      <trkpt lat="40.21534" lon="9.55358">
        <ele>814.2</ele>
        <time>2012-11-05T15:17:04Z</time>
      </trkpt>
      <trkpt lat="40.21538" lon="9.55359">
        <ele>814.2</ele>
        <time>2012-11-05T15:06:00Z</time>
      </trkpt>
      <trkpt lat="40.21567" lon="9.5539">
        <ele>850.6</ele>
        <time>2012-11-05T15:21:30Z</time>
      </trkpt>
      <trkpt lat="40.21646" lon="9.55421">
        <ele>853.8</ele>
        <time>2012-11-05T15:21:39Z</time>
      </trkpt>
      <trkpt lat="40.21657" lon="9.55424">
        <ele>854.8</ele>
        <time>2012-11-05T15:06:00Z</time>
      </trkpt>
      <trkpt lat="40.21662" lon="9.55423">
        <ele>855</ele>
        <time>2012-11-05T15:06:00Z</time>
      </trkpt>
      <trkpt lat="40.2167" lon="9.55431">
        <ele>856.1</ele>
        <time>2012-11-05T15:06:00Z</time>
      </trkpt>
      <trkpt lat="40.21662" lon="9.55433">
        <ele>865.2</ele>
        <time>2012-11-05T15:22:07Z</time>
      </trkpt>
      <trkpt lat="40.21652" lon="9.55427">
        <ele>870.7</ele>
        <time>2012-11-05T15:06:00Z</time>
      </trkpt>
      <trkpt lat="40.21642" lon="9.55429">
        <ele>872.2</ele>
        <time>2012-11-05T15:22:41Z</time>
      </trkpt>
      <trkpt lat="40.21614" lon="9.55422">
        <ele>878.9</ele>
        <time>2012-11-05T15:23:21Z</time>
      </trkpt>
      <trkpt lat="40.21613" lon="9.55425">
        <ele>878.9</ele>
        <time>2012-11-05T15:06:00Z</time>
      </trkpt>
      <trkpt lat="40.21618" lon="9.55438">
        <ele>878.8</ele>
        <time>2012-11-05T15:23:35Z</time>
      </trkpt>
      <trkpt lat="40.21645" lon="9.55464">
        <ele>883.8</ele>
        <time>2012-11-05T15:24:23Z</time>
      </trkpt>
      <trkpt lat="40.21661" lon="9.55492">
        <ele>890.4</ele>
        <time>2012-11-05T15:06:00Z</time>
      </trkpt>
      <trkpt lat="40.21665" lon="9.55493">
        <ele>891.9</ele>
        <time>2012-11-05T15:25:14Z</time>
      </trkpt>
      <trkpt lat="40.21665" lon="9.555">
        <ele>900.3</ele>
        <time>2012-11-05T15:25:37Z</time>
      </trkpt>
      <trkpt lat="40.21631" lon="9.55505">
        <ele>902.7</ele>
        <time>2012-11-05T15:25:49Z</time>
      </trkpt>
      <trkpt lat="40.21625" lon="9.55514">
        <ele>904</ele>
        <time>2012-11-05T15:25:53Z</time>
      </trkpt>
      <trkpt lat="40.21627" lon="9.55521">
        <ele>906.2</ele>
        <time>2012-11-05T15:06:00Z</time>
      </trkpt>
      <trkpt lat="40.21638" lon="9.55533">
        <ele>909.8</ele>
        <time>2012-11-05T15:26:28Z</time>
      </trkpt>
      <trkpt lat="40.21647" lon="9.55555">
        <ele>912.9</ele>
        <time>2012-11-05T15:06:00Z</time>
      </trkpt>
      <trkpt lat="40.2166" lon="9.55566">
        <ele>914.7</ele>
        <time>2012-11-05T15:26:42Z</time>
      </trkpt>
      <trkpt lat="40.21657" lon="9.55564">
        <ele>914.9</ele>
        <time>2012-11-05T15:06:00Z</time>
      </trkpt>
      <trkpt lat="40.21673" lon="9.55575">
        <ele>915.5</ele>
        <time>2012-11-05T15:26:50Z</time>
      </trkpt>
      <trkpt lat="40.21678" lon="9.55582">
        <ele>914.9</ele>
        <time>2012-11-05T15:28:42Z</time>
      </trkpt>
      <trkpt lat="40.21685" lon="9.55582">
        <ele>915.1</ele>
        <time>2012-11-05T15:28:43Z</time>
      </trkpt>
      <trkpt lat="40.21717" lon="9.55604">
        <ele>915.1</ele>
        <time>2012-11-05T15:28:56Z</time>
      </trkpt>
      <trkpt lat="40.21724" lon="9.55604">
        <ele>915.1</ele>
        <time>2012-11-05T15:06:00Z</time>
      </trkpt>
      <trkpt lat="40.21749" lon="9.55616">
        <ele>914.4</ele>
        <time>2012-11-05T15:29:03Z</time>
      </trkpt>
      <trkpt lat="40.21756" lon="9.55616">
        <ele>914.4</ele>
        <time>2012-11-05T15:06:00Z</time>
      </trkpt>
      <trkpt lat="40.21806" lon="9.55655">
        <ele>911.5</ele>
        <time>2012-11-05T15:29:19Z</time>
      </trkpt>
      <trkpt lat="40.2182" lon="9.55668">
        <ele>911.9</ele>
        <time>2012-11-05T15:29:21Z</time>
      </trkpt>
      <trkpt lat="40.21841" lon="9.55697">
        <ele>912.7</ele>
        <time>2012-11-05T15:06:00Z</time>
      </trkpt>
      <trkpt lat="40.21879" lon="9.55732">
        <ele>912.1</ele>
        <time>2012-11-05T15:29:34Z</time>
      </trkpt>
      <trkpt lat="40.21912" lon="9.55753">
        <ele>911.9</ele>
        <time>2012-11-05T15:29:43Z</time>
      </trkpt>
      <trkpt lat="40.21946" lon="9.55759">
        <ele>907.2</ele>
        <time>2012-11-05T15:30:03Z</time>
      </trkpt>
      <trkpt lat="40.21967" lon="9.5577">
        <ele>909.2</ele>
        <time>2012-11-05T15:30:15Z</time>
      </trkpt>
      <trkpt lat="40.21966" lon="9.55769">
        <ele>909.4</ele>
        <time>2012-11-05T15:06:00Z</time>
      </trkpt>
      <trkpt lat="40.22112" lon="9.55879">
        <ele>895.8</ele>
        <time>2012-11-05T15:32:03Z</time>
      </trkpt>
      <trkpt lat="40.22122" lon="9.55887">
        <ele>894.9</ele>
        <time>2012-11-05T15:32:08Z</time>
      </trkpt>
      <trkpt lat="40.22141" lon="9.55913">
        <ele>899.4</ele>
        <time>2012-11-05T15:32:18Z</time>
      </trkpt>
      <trkpt lat="40.22167" lon="9.55926">
        <ele>900.7</ele>
        <time>2012-11-05T15:32:33Z</time>
      </trkpt>
      <trkpt lat="40.2218" lon="9.55937">
        <ele>900.6</ele>
        <time>2012-11-05T15:06:00Z</time>
      </trkpt>
      <trkpt lat="40.22192" lon="9.55952">
        <ele>899.3</ele>
        <time>2012-11-05T15:32:54Z</time>
      </trkpt>
      <trkpt lat="40.22198" lon="9.55951">
        <ele>899.3</ele>
        <time>2012-11-05T15:06:00Z</time>
      </trkpt>
      <trkpt lat="40.22207" lon="9.55956">
        <ele>898.4</ele>
        <time>2012-11-05T15:33:06Z</time>
      </trkpt>
      <trkpt lat="40.22209" lon="9.55955">
        <ele>898.4</ele>
        <time>2012-11-05T15:06:00Z</time>
      </trkpt>
      <trkpt lat="40.22225" lon="9.55964">
        <ele>898.5</ele>
        <time>2012-11-05T15:06:00Z</time>
      </trkpt>
      <trkpt lat="40.22265" lon="9.56014">
        <ele>891.4</ele>
        <time>2012-11-05T15:34:19Z</time>
      </trkpt>
      <trkpt lat="40.22308" lon="9.56031">
        <ele>891.1</ele>
        <time>2012-11-05T15:34:21Z</time>
      </trkpt>
      <trkpt lat="40.22324" lon="9.56045">
        <ele>891</ele>
        <time>2012-11-05T15:34:22Z</time>
      </trkpt>
      <trkpt lat="40.22367" lon="9.56074">
        <ele>890.7</ele>
        <time>2012-11-05T15:34:26Z</time>
      </trkpt>
      <trkpt lat="40.2237" lon="9.56083">
        <ele>890.4</ele>
        <time>2012-11-05T15:34:27Z</time>
      </trkpt>
      <trkpt lat="40.22375" lon="9.56089">
        <ele>890.1</ele>
        <time>2012-11-05T15:34:28Z</time>
      </trkpt>
      <trkpt lat="40.22388" lon="9.56088">
        <ele>889.7</ele>
        <time>2012-11-05T15:34:30Z</time>
      </trkpt>
      <trkpt lat="40.22392" lon="9.56093">
        <ele>889.5</ele>
        <time>2012-11-05T15:34:31Z</time>
      </trkpt>
      <trkpt lat="40.22396" lon="9.56109">
        <ele>888.6</ele>
        <time>2012-11-05T15:34:35Z</time>
      </trkpt>
      <trkpt lat="40.22394" lon="9.56114">
        <ele>887.9</ele>
        <time>2012-11-05T15:34:37Z</time>
      </trkpt>
      <trkpt lat="40.22372" lon="9.56107">
        <ele>887.6</ele>
        <time>2012-11-05T15:34:38Z</time>
      </trkpt>
      <trkpt lat="40.22343" lon="9.56132">
        <ele>885.4</ele>
        <time>2012-11-05T15:34:46Z</time>
      </trkpt>
      <trkpt lat="40.22334" lon="9.56147">
        <ele>884.2</ele>
        <time>2012-11-05T15:34:49Z</time>
      </trkpt>
      <trkpt lat="40.22332" lon="9.56152">
        <ele>883.9</ele>
        <time>2012-11-05T15:34:50Z</time>
      </trkpt>
      <trkpt lat="40.22332" lon="9.56167">
        <ele>882.7</ele>
        <time>2012-11-05T15:06:00Z</time>
      </trkpt>
      <trkpt lat="40.22329" lon="9.56191">
        <ele>881</ele>
        <time>2012-11-05T15:06:00Z</time>
      </trkpt>
      <trkpt lat="40.22313" lon="9.56218">
        <ele>877.9</ele>
        <time>2012-11-05T15:06:00Z</time>
      </trkpt>
      <trkpt lat="40.22311" lon="9.56238">
        <ele>877.6</ele>
        <time>2012-11-05T15:35:07Z</time>
      </trkpt>
      <trkpt lat="40.22302" lon="9.56279">
        <ele>874.2</ele>
        <time>2012-11-05T15:06:00Z</time>
      </trkpt>
      <trkpt lat="40.22252" lon="9.56301">
        <ele>867.2</ele>
        <time>2012-11-05T15:35:24Z</time>
      </trkpt>
      <trkpt lat="40.22223" lon="9.56331">
        <ele>862.6</ele>
        <time>2012-11-05T15:35:30Z</time>
      </trkpt>
      <trkpt lat="40.22208" lon="9.56343">
        <ele>858.4</ele>
        <time>2012-11-05T15:35:33Z</time>
      </trkpt>
      <trkpt lat="40.22203" lon="9.56351">
        <ele>855</ele>
        <time>2012-11-05T15:35:35Z</time>
      </trkpt>
      <trkpt lat="40.22198" lon="9.56372">
        <ele>850.4</ele>
        <time>2012-11-05T15:35:38Z</time>
      </trkpt>
      <trkpt lat="40.22192" lon="9.56384">
        <ele>848.7</ele>
        <time>2012-11-05T15:35:40Z</time>
      </trkpt>
      <trkpt lat="40.22184" lon="9.56394">
        <ele>845.8</ele>
        <time>2012-11-05T15:35:42Z</time>
      </trkpt>
      <trkpt lat="40.2217" lon="9.56402">
        <ele>843.5</ele>
        <time>2012-11-05T15:06:00Z</time>
      </trkpt>
      <trkpt lat="40.22164" lon="9.56418">
        <ele>841.7</ele>
        <time>2012-11-05T15:06:00Z</time>
      </trkpt>
      <trkpt lat="40.22152" lon="9.56428">
        <ele>840.1</ele>
        <time>2012-11-05T15:35:52Z</time>
      </trkpt>
      <trkpt lat="40.22134" lon="9.56438">
        <ele>837.5</ele>
        <time>2012-11-05T15:06:00Z</time>
      </trkpt>
      <trkpt lat="40.221" lon="9.56444">
        <ele>834.9</ele>
        <time>2012-11-05T15:36:05Z</time>
      </trkpt>
      <trkpt lat="40.22093" lon="9.56448">
        <ele>834.3</ele>
        <time>2012-11-05T15:36:06Z</time>
      </trkpt>
      <trkpt lat="40.22079" lon="9.56469">
        <ele>832.5</ele>
        <time>2012-11-05T15:36:11Z</time>
      </trkpt>
      <trkpt lat="40.22064" lon="9.56483">
        <ele>831.4</ele>
        <time>2012-11-05T15:36:14Z</time>
      </trkpt>
      <trkpt lat="40.22013" lon="9.56501">
        <ele>828.4</ele>
        <time>2012-11-05T15:36:21Z</time>
      </trkpt>
      <trkpt lat="40.22007" lon="9.56506">
        <ele>827.8</ele>
        <time>2012-11-05T15:36:22Z</time>
      </trkpt>
      <trkpt lat="40.21989" lon="9.56524">
        <ele>826.1</ele>
        <time>2012-11-05T15:36:25Z</time>
      </trkpt>
      <trkpt lat="40.2198" lon="9.56541">
        <ele>824.9</ele>
        <time>2012-11-05T15:36:27Z</time>
      </trkpt>
      <trkpt lat="40.21974" lon="9.56562">
        <ele>823.7</ele>
        <time>2012-11-05T15:36:30Z</time>
      </trkpt>
      <trkpt lat="40.21973" lon="9.56569">
        <ele>823.4</ele>
        <time>2012-11-05T15:36:31Z</time>
      </trkpt>
      <trkpt lat="40.2198" lon="9.56608">
        <ele>820</ele>
        <time>2012-11-05T15:36:36Z</time>
      </trkpt>
      <trkpt lat="40.22006" lon="9.56678">
        <ele>815.7</ele>
        <time>2012-11-05T15:36:45Z</time>
      </trkpt>
      <trkpt lat="40.22016" lon="9.56716">
        <ele>814.3</ele>
        <time>2012-11-05T15:36:49Z</time>
      </trkpt>
      <trkpt lat="40.2204" lon="9.56772">
        <ele>807.5</ele>
        <time>2012-11-05T15:36:55Z</time>
      </trkpt>
      <trkpt lat="40.22048" lon="9.56801">
        <ele>804.4</ele>
        <time>2012-11-05T15:36:59Z</time>
      </trkpt>
      <trkpt lat="40.22065" lon="9.56822">
        <ele>801.7</ele>
        <time>2012-11-05T15:37:03Z</time>
      </trkpt>
      <trkpt lat="40.22077" lon="9.56842">
        <ele>799.6</ele>
        <time>2012-11-05T15:37:06Z</time>
      </trkpt>
      <trkpt lat="40.22087" lon="9.56866">
        <ele>797.9</ele>
        <time>2012-11-05T15:37:09Z</time>
      </trkpt>
      <trkpt lat="40.22105" lon="9.56882">
        <ele>794.8</ele>
        <time>2012-11-05T15:37:12Z</time>
      </trkpt>
      <trkpt lat="40.22116" lon="9.56887">
        <ele>792.1</ele>
        <time>2012-11-05T15:37:14Z</time>
      </trkpt>
      <trkpt lat="40.22132" lon="9.5689">
        <ele>788.8</ele>
        <time>2012-11-05T15:37:17Z</time>
      </trkpt>
      <trkpt lat="40.22145" lon="9.56899">
        <ele>785.6</ele>
        <time>2012-11-05T15:06:00Z</time>
      </trkpt>
      <trkpt lat="40.22156" lon="9.5693">
        <ele>782.7</ele>
        <time>2012-11-05T15:06:00Z</time>
      </trkpt>
      <trkpt lat="40.22177" lon="9.56944">
        <ele>752.2</ele>
        <time>2012-11-05T15:41:31Z</time>
      </trkpt>
      <trkpt lat="40.22209" lon="9.56949">
        <ele>752.8</ele>
        <time>2012-11-05T15:41:42Z</time>
      </trkpt>
      <trkpt lat="40.22226" lon="9.56963">
        <ele>752.6</ele>
        <time>2012-11-05T15:41:46Z</time>
      </trkpt>
      <trkpt lat="40.22236" lon="9.56969">
        <ele>753.6</ele>
        <time>2012-11-05T15:41:49Z</time>
      </trkpt>
      <trkpt lat="40.22239" lon="9.56975">
        <ele>754.8</ele>
        <time>2012-11-05T15:41:52Z</time>
      </trkpt>
      <trkpt lat="40.2224" lon="9.56984">
        <ele>755.8</ele>
        <time>2012-11-05T15:41:55Z</time>
      </trkpt>
      <trkpt lat="40.22237" lon="9.56992">
        <ele>756.4</ele>
        <time>2012-11-05T15:42:01Z</time>
      </trkpt>
      <trkpt lat="40.22239" lon="9.56999">
        <ele>756.5</ele>
        <time>2012-11-05T15:06:00Z</time>
      </trkpt>
      <trkpt lat="40.22235" lon="9.5701">
        <ele>755.2</ele>
        <time>2012-11-05T15:42:22Z</time>
      </trkpt>
      <trkpt lat="40.22208" lon="9.57044">
        <ele>755</ele>
        <time>2012-11-05T15:06:00Z</time>
      </trkpt>
      <trkpt lat="40.22196" lon="9.57064">
        <ele>754.1</ele>
        <time>2012-11-05T15:42:38Z</time>
      </trkpt>
      <trkpt lat="40.2218" lon="9.57076">
        <ele>751.7</ele>
        <time>2012-11-05T15:42:43Z</time>
      </trkpt>
      <trkpt lat="40.2217" lon="9.57077">
        <ele>750.8</ele>
        <time>2012-11-05T15:06:00Z</time>
      </trkpt>
      <trkpt lat="40.22143" lon="9.57088">
        <ele>748.3</ele>
        <time>2012-11-05T15:42:52Z</time>
      </trkpt>
      <trkpt lat="40.22118" lon="9.57115">
        <ele>746.6</ele>
        <time>2012-11-05T15:43:06Z</time>
      </trkpt>
      <trkpt lat="40.22141" lon="9.57128">
        <ele>741.8</ele>
        <time>2012-11-05T15:43:22Z</time>
      </trkpt>
      <trkpt lat="40.22145" lon="9.57138">
        <ele>739.6</ele>
        <time>2012-11-05T15:06:00Z</time>
      </trkpt>
      <trkpt lat="40.22155" lon="9.57143">
        <ele>739.6</ele>
        <time>2012-11-05T15:43:31Z</time>
      </trkpt>
      <trkpt lat="40.22164" lon="9.57152">
        <ele>740.8</ele>
        <time>2012-11-05T15:06:00Z</time>
      </trkpt>
      <trkpt lat="40.22173" lon="9.57158">
        <ele>741.6</ele>
        <time>2012-11-05T15:06:00Z</time>
      </trkpt>
      <trkpt lat="40.22175" lon="9.57164">
        <ele>741.8</ele>
        <time>2012-11-05T15:43:42Z</time>
      </trkpt>
      <trkpt lat="40.22176" lon="9.5718">
        <ele>741.2</ele>
        <time>2012-11-05T15:06:00Z</time>
      </trkpt>
      <trkpt lat="40.22179" lon="9.57186">
        <ele>740.6</ele>
        <time>2012-11-05T15:43:53Z</time>
      </trkpt>
      <trkpt lat="40.22187" lon="9.57222">
        <ele>739.1</ele>
        <time>2012-11-05T15:44:04Z</time>
      </trkpt>
      <trkpt lat="40.22251" lon="9.57444">
        <ele>712.9</ele>
        <time>2012-11-05T15:45:28Z</time>
      </trkpt>
      <trkpt lat="40.22285" lon="9.57457">
        <ele>713.3</ele>
        <time>2012-11-05T15:45:33Z</time>
      </trkpt>
      <trkpt lat="40.22289" lon="9.57463">
        <ele>713.9</ele>
        <time>2012-11-05T15:45:37Z</time>
      </trkpt>
      <trkpt lat="40.22292" lon="9.57463">
        <ele>713.9</ele>
        <time>2012-11-05T15:06:00Z</time>
      </trkpt>
      <trkpt lat="40.22292" lon="9.57467">
        <ele>714.3</ele>
        <time>2012-11-05T15:45:39Z</time>
      </trkpt>
      <trkpt lat="40.22298" lon="9.57469">
        <ele>714.3</ele>
        <time>2012-11-05T15:06:00Z</time>
      </trkpt>
      <trkpt lat="40.22318" lon="9.57491">
        <ele>711.4</ele>
        <time>2012-11-05T15:06:00Z</time>
      </trkpt>
      <trkpt lat="40.22337" lon="9.5752">
        <ele>709.4</ele>
        <time>2012-11-05T15:06:00Z</time>
      </trkpt>
      <trkpt lat="40.22345" lon="9.57538">
        <ele>708.9</ele>
        <time>2012-11-05T15:46:01Z</time>
      </trkpt>
      <trkpt lat="40.22353" lon="9.57576">
        <ele>708.4</ele>
        <time>2012-11-05T15:46:12Z</time>
      </trkpt>
      <trkpt lat="40.22365" lon="9.57593">
        <ele>707.9</ele>
        <time>2012-11-05T15:06:00Z</time>
      </trkpt>
      <trkpt lat="40.22365" lon="9.57604">
        <ele>705.7</ele>
        <time>2012-11-05T15:46:24Z</time>
      </trkpt>
      <trkpt lat="40.22368" lon="9.57608">
        <ele>705.7</ele>
        <time>2012-11-05T15:06:00Z</time>
      </trkpt>
      <trkpt lat="40.22369" lon="9.57614">
        <ele>704.6</ele>
        <time>2012-11-05T15:46:26Z</time>
      </trkpt>
      <trkpt lat="40.22426" lon="9.57689">
        <ele>670</ele>
        <time>2012-11-05T15:46:54Z</time>
      </trkpt>
      <trkpt lat="40.22429" lon="9.57703">
        <ele>669.2</ele>
        <time>2012-11-05T15:47:00Z</time>
      </trkpt>
      <trkpt lat="40.22432" lon="9.57709">
        <ele>667.6</ele>
        <time>2012-11-05T15:06:00Z</time>
      </trkpt>
      <trkpt lat="40.2243" lon="9.57711">
        <ele>666.8</ele>
        <time>2012-11-05T15:47:12Z</time>
      </trkpt>
      <trkpt lat="40.22432" lon="9.5772">
        <ele>657.9</ele>
        <time>2012-11-05T15:47:16Z</time>
      </trkpt>
      <trkpt lat="40.2244" lon="9.5773">
        <ele>656.2</ele>
        <time>2012-11-05T15:47:21Z</time>
      </trkpt>
      <trkpt lat="40.22445" lon="9.57743">
        <ele>656.2</ele>
        <time>2012-11-05T15:06:00Z</time>
      </trkpt>
      <trkpt lat="40.22468" lon="9.5784">
        <ele>659.6</ele>
        <time>2012-11-05T15:06:00Z</time>
      </trkpt>
      <trkpt lat="40.22481" lon="9.57845">
        <ele>659.6</ele>
        <time>2012-11-05T15:49:34Z</time>
      </trkpt>
      <trkpt lat="40.2249" lon="9.57855">
        <ele>659.7</ele>
        <time>2012-11-05T15:49:35Z</time>
      </trkpt>
      <trkpt lat="40.22495" lon="9.57853">
        <ele>659</ele>
        <time>2012-11-05T15:49:37Z</time>
      </trkpt>
      <trkpt lat="40.22497" lon="9.57858">
        <ele>659</ele>
        <time>2012-11-05T15:06:00Z</time>
      </trkpt>
      <trkpt lat="40.22508" lon="9.57865">
        <ele>655.6</ele>
        <time>2012-11-05T15:49:40Z</time>
      </trkpt>
      <trkpt lat="40.22515" lon="9.57874">
        <ele>654.1</ele>
        <time>2012-11-05T15:49:41Z</time>
      </trkpt>
      <trkpt lat="40.22525" lon="9.5788">
        <ele>651.5</ele>
        <time>2012-11-05T15:49:45Z</time>
      </trkpt>
      <trkpt lat="40.22532" lon="9.57882">
        <ele>651.5</ele>
        <time>2012-11-05T15:06:00Z</time>
      </trkpt>
      <trkpt lat="40.22535" lon="9.57891">
        <ele>650.8</ele>
        <time>2012-11-05T15:06:00Z</time>
      </trkpt>
      <trkpt lat="40.22634" lon="9.5801">
        <ele>640.4</ele>
        <time>2012-11-05T15:51:29Z</time>
      </trkpt>
      <trkpt lat="40.22655" lon="9.58058">
        <ele>634</ele>
        <time>2012-11-05T15:52:19Z</time>
      </trkpt>
      <trkpt lat="40.22663" lon="9.58064">
        <ele>633.9</ele>
        <time>2012-11-05T15:52:21Z</time>
      </trkpt>
      <trkpt lat="40.22663" lon="9.58068">
        <ele>631.6</ele>
        <time>2012-11-05T15:52:33Z</time>
      </trkpt>
      <trkpt lat="40.22675" lon="9.58079">
        <ele>628.2</ele>
        <time>2012-11-05T15:06:00Z</time>
      </trkpt>
      <trkpt lat="40.22678" lon="9.58087">
        <ele>625.8</ele>
        <time>2012-11-05T15:52:46Z</time>
      </trkpt>
      <trkpt lat="40.22681" lon="9.58088">
        <ele>625.8</ele>
        <time>2012-11-05T15:06:00Z</time>
      </trkpt>
      <trkpt lat="40.22681" lon="9.58095">
        <ele>624.9</ele>
        <time>2012-11-05T15:52:57Z</time>
      </trkpt>
      <trkpt lat="40.22685" lon="9.58103">
        <ele>624.9</ele>
        <time>2012-11-05T15:06:00Z</time>
      </trkpt>
      <trkpt lat="40.227" lon="9.5812">
        <ele>624.1</ele>
        <time>2012-11-05T15:06:00Z</time>
      </trkpt>
      <trkpt lat="40.22739" lon="9.58188">
        <ele>620.9</ele>
        <time>2012-11-05T15:53:47Z</time>
      </trkpt>
      <trkpt lat="40.22837" lon="9.58281">
        <ele>611.9</ele>
        <time>2012-11-05T15:54:43Z</time>
      </trkpt>
      <trkpt lat="40.23221" lon="9.58325">
        <ele>614.7</ele>
        <time>2012-11-05T15:58:22Z</time>
      </trkpt>
      <trkpt lat="40.23237" lon="9.58333">
        <ele>614.2</ele>
        <time>2012-11-05T15:58:28Z</time>
      </trkpt>
      <trkpt lat="40.23252" lon="9.58325">
        <ele>614</ele>
        <time>2012-11-05T15:06:00Z</time>
      </trkpt>
      <trkpt lat="40.23279" lon="9.58294">
        <ele>611.1</ele>
        <time>2012-11-05T15:06:00Z</time>
      </trkpt>
      <trkpt lat="40.23308" lon="9.5829">
        <ele>612.6</ele>
        <time>2012-11-05T15:58:57Z</time>
      </trkpt>
      <trkpt lat="40.23319" lon="9.58295">
        <ele>613.4</ele>
        <time>2012-11-05T15:59:03Z</time>
      </trkpt>
      <trkpt lat="40.23327" lon="9.58289">
        <ele>612.7</ele>
        <time>2012-11-05T15:06:00Z</time>
      </trkpt>
      <trkpt lat="40.23334" lon="9.58244">
        <ele>612.1</ele>
        <time>2012-11-05T15:59:17Z</time>
      </trkpt>
      <trkpt lat="40.23346" lon="9.58211">
        <ele>609.3</ele>
        <time>2012-11-05T15:59:21Z</time>
      </trkpt>
      <trkpt lat="40.2335" lon="9.58183">
        <ele>607.1</ele>
        <time>2012-11-05T15:59:42Z</time>
      </trkpt>
      <trkpt lat="40.23351" lon="9.5818">
        <ele>607.1</ele>
        <time>2012-11-05T15:06:00Z</time>
      </trkpt>
      <trkpt lat="40.23357" lon="9.58177">
        <ele>606.8</ele>
        <time>2012-11-05T15:59:45Z</time>
      </trkpt>
      <trkpt lat="40.2335" lon="9.58182">
        <ele>606.8</ele>
        <time>2012-11-05T15:59:46Z</time>
      </trkpt>
      <trkpt lat="40.2337" lon="9.58176">
        <ele>606.8</ele>
        <time>2012-11-05T15:06:00Z</time>
      </trkpt>
      <trkpt lat="40.23436" lon="9.58171">
        <ele>606.3</ele>
        <time>2012-11-05T15:59:59Z</time>
      </trkpt>
      <trkpt lat="40.23467" lon="9.58176">
        <ele>605.2</ele>
        <time>2012-11-05T16:00:04Z</time>
      </trkpt>
      <trkpt lat="40.23488" lon="9.58189">
        <ele>604.2</ele>
        <time>2012-11-05T16:00:07Z</time>
      </trkpt>
      <trkpt lat="40.23519" lon="9.58205">
        <ele>599.9</ele>
        <time>2012-11-05T16:00:10Z</time>
      </trkpt>
      <trkpt lat="40.23572" lon="9.58248">
        <ele>593.5</ele>
        <time>2012-11-05T16:00:17Z</time>
      </trkpt>
      <trkpt lat="40.23614" lon="9.58261">
        <ele>583.4</ele>
        <time>2012-11-05T16:00:23Z</time>
      </trkpt>
      <trkpt lat="40.23628" lon="9.58278">
        <ele>578.1</ele>
        <time>2012-11-05T16:00:26Z</time>
      </trkpt>
      <trkpt lat="40.23647" lon="9.58324">
        <ele>570.2</ele>
        <time>2012-11-05T16:00:30Z</time>
      </trkpt>
      <trkpt lat="40.23658" lon="9.58378">
        <ele>563.6</ele>
        <time>2012-11-05T16:00:34Z</time>
      </trkpt>
      <trkpt lat="40.23662" lon="9.58415">
        <ele>559.2</ele>
        <time>2012-11-05T16:00:37Z</time>
      </trkpt>
      <trkpt lat="40.23671" lon="9.58439">
        <ele>556.4</ele>
        <time>2012-11-05T16:00:39Z</time>
      </trkpt>
      <trkpt lat="40.2371" lon="9.58494">
        <ele>549.5</ele>
        <time>2012-11-05T16:00:44Z</time>
      </trkpt>
      <trkpt lat="40.23727" lon="9.58523">
        <ele>543.1</ele>
        <time>2012-11-05T16:00:47Z</time>
      </trkpt>
      <trkpt lat="40.23731" lon="9.58529">
        <ele>540.9</ele>
        <time>2012-11-05T16:00:48Z</time>
      </trkpt>
      <trkpt lat="40.23744" lon="9.58536">
        <ele>527.2</ele>
        <time>2012-11-05T16:00:50Z</time>
      </trkpt>
      <trkpt lat="40.23753" lon="9.58522">
        <ele>519.9</ele>
        <time>2012-11-05T16:00:52Z</time>
      </trkpt>
      <trkpt lat="40.23759" lon="9.58501">
        <ele>515.4</ele>
        <time>2012-11-05T16:00:54Z</time>
      </trkpt>
      <trkpt lat="40.23759" lon="9.58474">
        <ele>510.9</ele>
        <time>2012-11-05T16:00:57Z</time>
      </trkpt>
      <trkpt lat="40.23762" lon="9.58472">
        <ele>508</ele>
        <time>2012-11-05T16:00:59Z</time>
      </trkpt>
      <trkpt lat="40.23765" lon="9.58477">
        <ele>504.7</ele>
        <time>2012-11-05T16:01:01Z</time>
      </trkpt>
      <trkpt lat="40.23777" lon="9.58484">
        <ele>503.4</ele>
        <time>2012-11-05T16:01:05Z</time>
      </trkpt>
      <trkpt lat="40.23785" lon="9.58495">
        <ele>502.8</ele>
        <time>2012-11-05T15:06:00Z</time>
      </trkpt>
      <trkpt lat="40.23795" lon="9.5852">
        <ele>502.9</ele>
        <time>2012-11-05T16:01:12Z</time>
      </trkpt>
      <trkpt lat="40.23799" lon="9.58541">
        <ele>503.3</ele>
        <time>2012-11-05T16:01:15Z</time>
      </trkpt>
      <trkpt lat="40.23799" lon="9.58563">
        <ele>502.7</ele>
        <time>2012-11-05T16:01:18Z</time>
      </trkpt>
      <trkpt lat="40.23805" lon="9.58595">
        <ele>499.3</ele>
        <time>2012-11-05T15:06:00Z</time>
      </trkpt>
      <trkpt lat="40.23821" lon="9.58622">
        <ele>497.9</ele>
        <time>2012-11-05T16:01:29Z</time>
      </trkpt>
      <trkpt lat="40.23843" lon="9.58641">
        <ele>496.1</ele>
        <time>2012-11-05T16:01:34Z</time>
      </trkpt>
      <trkpt lat="40.23861" lon="9.58667">
        <ele>492.6</ele>
        <time>2012-11-05T15:06:00Z</time>
      </trkpt>
      <trkpt lat="40.23864" lon="9.58678">
        <ele>492.4</ele>
        <time>2012-11-05T15:06:00Z</time>
      </trkpt>
      <trkpt lat="40.23862" lon="9.58685">
        <ele>491.7</ele>
        <time>2012-11-05T16:01:59Z</time>
      </trkpt>
      <trkpt lat="40.23866" lon="9.58689">
        <ele>491.4</ele>
        <time>2012-11-05T16:02:01Z</time>
      </trkpt>
      <trkpt lat="40.23877" lon="9.58715">
        <ele>490</ele>
        <time>2012-11-05T15:06:00Z</time>
      </trkpt>
      <trkpt lat="40.23884" lon="9.58717">
        <ele>489.6</ele>
        <time>2012-11-05T15:06:00Z</time>
      </trkpt>
      <trkpt lat="40.23914" lon="9.58739">
        <ele>490.3</ele>
        <time>2012-11-05T16:02:21Z</time>
      </trkpt>
      <trkpt lat="40.2392" lon="9.5874">
        <ele>490.5</ele>
        <time>2012-11-05T16:02:26Z</time>
      </trkpt>
      <trkpt lat="40.23925" lon="9.58737">
        <ele>490.5</ele>
        <time>2012-11-05T15:06:00Z</time>
      </trkpt>
      <trkpt lat="40.23931" lon="9.58739">
        <ele>490.7</ele>
        <time>2012-11-05T16:02:29Z</time>
      </trkpt>
      <trkpt lat="40.23938" lon="9.58731">
        <ele>490.4</ele>
        <time>2012-11-05T15:06:00Z</time>
      </trkpt>
      <trkpt lat="40.23946" lon="9.58727">
        <ele>490</ele>
        <time>2012-11-05T15:06:00Z</time>
      </trkpt>
      <trkpt lat="40.24004" lon="9.5878">
        <ele>491.2</ele>
        <time>2012-11-05T16:02:54Z</time>
      </trkpt>
      <trkpt lat="40.24019" lon="9.58789">
        <ele>492.7</ele>
        <time>2012-11-05T16:02:58Z</time>
      </trkpt>
      <trkpt lat="40.24089" lon="9.58815">
        <ele>493.6</ele>
        <time>2012-11-05T16:03:09Z</time>
      </trkpt>
      <trkpt lat="40.241" lon="9.58823">
        <ele>493.3</ele>
        <time>2012-11-05T16:03:11Z</time>
      </trkpt>
      <trkpt lat="40.24106" lon="9.58838">
        <ele>492.4</ele>
        <time>2012-11-05T16:03:13Z</time>
      </trkpt>
      <trkpt lat="40.2413" lon="9.58926">
        <ele>490.8</ele>
        <time>2012-11-05T16:03:22Z</time>
      </trkpt>
      <trkpt lat="40.24148" lon="9.58969">
        <ele>490</ele>
        <time>2012-11-05T16:03:27Z</time>
      </trkpt>
      <trkpt lat="40.24159" lon="9.59">
        <ele>488.2</ele>
        <time>2012-11-05T16:03:30Z</time>
      </trkpt>
      <trkpt lat="40.24161" lon="9.5901">
        <ele>488.1</ele>
        <time>2012-11-05T16:03:31Z</time>
      </trkpt>
      <trkpt lat="40.24156" lon="9.59076">
        <ele>484.9</ele>
        <time>2012-11-05T16:03:36Z</time>
      </trkpt>
      <trkpt lat="40.24163" lon="9.59113">
        <ele>484.4</ele>
        <time>2012-11-05T16:03:39Z</time>
      </trkpt>
      <trkpt lat="40.24177" lon="9.59151">
        <ele>481.6</ele>
        <time>2012-11-05T16:03:42Z</time>
      </trkpt>
      <trkpt lat="40.24184" lon="9.59161">
        <ele>480.1</ele>
        <time>2012-11-05T16:03:43Z</time>
      </trkpt>
      <trkpt lat="40.24218" lon="9.59195">
        <ele>474</ele>
        <time>2012-11-05T16:03:47Z</time>
      </trkpt>
      <trkpt lat="40.24256" lon="9.59226">
        <ele>467.2</ele>
        <time>2012-11-05T16:03:51Z</time>
      </trkpt>
      <trkpt lat="40.24277" lon="9.59237">
        <ele>464.3</ele>
        <time>2012-11-05T16:03:53Z</time>
      </trkpt>
      <trkpt lat="40.24306" lon="9.59242">
        <ele>460</ele>
        <time>2012-11-05T16:03:56Z</time>
      </trkpt>
      <trkpt lat="40.24314" lon="9.59245">
        <ele>458.2</ele>
        <time>2012-11-05T16:03:57Z</time>
      </trkpt>
      <trkpt lat="40.24321" lon="9.59251">
        <ele>455.6</ele>
        <time>2012-11-05T16:03:58Z</time>
      </trkpt>
      <trkpt lat="40.24334" lon="9.59272">
        <ele>452.5</ele>
        <time>2012-11-05T16:04:01Z</time>
      </trkpt>
      <trkpt lat="40.24359" lon="9.59298">
        <ele>444.7</ele>
        <time>2012-11-05T16:04:05Z</time>
      </trkpt>
      <trkpt lat="40.24366" lon="9.59301">
        <ele>443.6</ele>
        <time>2012-11-05T16:04:06Z</time>
      </trkpt>
      <trkpt lat="40.24395" lon="9.59304">
        <ele>440.9</ele>
        <time>2012-11-05T16:04:10Z</time>
      </trkpt>
      <trkpt lat="40.24408" lon="9.59311">
        <ele>439.7</ele>
        <time>2012-11-05T16:04:12Z</time>
      </trkpt>
      <trkpt lat="40.24414" lon="9.59324">
        <ele>439</ele>
        <time>2012-11-05T16:04:14Z</time>
      </trkpt>
      <trkpt lat="40.24422" lon="9.59355">
        <ele>437</ele>
        <time>2012-11-05T16:04:19Z</time>
      </trkpt>
      <trkpt lat="40.2443" lon="9.59377">
        <ele>435.8</ele>
        <time>2012-11-05T16:04:23Z</time>
      </trkpt>
      <trkpt lat="40.24461" lon="9.59443">
        <ele>435.5</ele>
        <time>2012-11-05T16:04:34Z</time>
      </trkpt>
      <trkpt lat="40.24471" lon="9.59459">
        <ele>435.6</ele>
        <time>2012-11-05T16:04:37Z</time>
      </trkpt>
      <trkpt lat="40.24497" lon="9.59487">
        <ele>432.8</ele>
        <time>2012-11-05T16:04:43Z</time>
      </trkpt>
      <trkpt lat="40.24542" lon="9.59545">
        <ele>432.2</ele>
        <time>2012-11-05T16:04:53Z</time>
      </trkpt>
      <trkpt lat="40.24554" lon="9.59569">
        <ele>432.5</ele>
        <time>2012-11-05T16:04:56Z</time>
      </trkpt>
      <trkpt lat="40.24575" lon="9.59628">
        <ele>433</ele>
        <time>2012-11-05T16:05:02Z</time>
      </trkpt>
      <trkpt lat="40.24593" lon="9.59686">
        <ele>432.2</ele>
        <time>2012-11-05T16:05:07Z</time>
      </trkpt>
      <trkpt lat="40.24613" lon="9.59716">
        <ele>428.8</ele>
        <time>2012-11-05T16:05:10Z</time>
      </trkpt>
      <trkpt lat="40.24631" lon="9.59736">
        <ele>427.6</ele>
        <time>2012-11-05T16:05:13Z</time>
      </trkpt>
      <trkpt lat="40.24633" lon="9.59744">
        <ele>427.3</ele>
        <time>2012-11-05T16:05:14Z</time>
      </trkpt>
      <trkpt lat="40.24631" lon="9.59762">
        <ele>426.7</ele>
        <time>2012-11-05T16:05:16Z</time>
      </trkpt>
      <trkpt lat="40.24637" lon="9.59791">
        <ele>424.9</ele>
        <time>2012-11-05T16:05:19Z</time>
      </trkpt>
      <trkpt lat="40.2465" lon="9.59829">
        <ele>423.9</ele>
        <time>2012-11-05T16:05:23Z</time>
      </trkpt>
      <trkpt lat="40.24664" lon="9.59883">
        <ele>421.7</ele>
        <time>2012-11-05T16:05:28Z</time>
      </trkpt>
      <trkpt lat="40.24714" lon="9.60007">
        <ele>418.1</ele>
        <time>2012-11-05T16:05:40Z</time>
      </trkpt>
      <trkpt lat="40.24741" lon="9.60059">
        <ele>414.7</ele>
        <time>2012-11-05T16:05:46Z</time>
      </trkpt>
      <trkpt lat="40.24759" lon="9.60087">
        <ele>413.2</ele>
        <time>2012-11-05T16:05:50Z</time>
      </trkpt>
      <trkpt lat="40.24843" lon="9.60176">
        <ele>405.7</ele>
        <time>2012-11-05T16:06:10Z</time>
      </trkpt>
      <trkpt lat="40.24873" lon="9.60221">
        <ele>405.1</ele>
        <time>2012-11-05T16:06:19Z</time>
      </trkpt>
      <trkpt lat="40.24898" lon="9.60234">
        <ele>404.4</ele>
        <time>2012-11-05T16:06:23Z</time>
      </trkpt>
      <trkpt lat="40.24917" lon="9.60255">
        <ele>403.4</ele>
        <time>2012-11-05T16:06:26Z</time>
      </trkpt>
      <trkpt lat="40.24922" lon="9.60263">
        <ele>402.8</ele>
        <time>2012-11-05T16:06:27Z</time>
      </trkpt>
      <trkpt lat="40.2494" lon="9.60316">
        <ele>399.5</ele>
        <time>2012-11-05T16:06:32Z</time>
      </trkpt>
      <trkpt lat="40.24954" lon="9.60333">
        <ele>397.9</ele>
        <time>2012-11-05T16:06:34Z</time>
      </trkpt>
      <trkpt lat="40.24987" lon="9.60363">
        <ele>395.3</ele>
        <time>2012-11-05T16:06:38Z</time>
      </trkpt>
      <trkpt lat="40.25012" lon="9.60404">
        <ele>393.6</ele>
        <time>2012-11-05T16:06:42Z</time>
      </trkpt>
      <trkpt lat="40.2502" lon="9.60412">
        <ele>392.9</ele>
        <time>2012-11-05T16:06:43Z</time>
      </trkpt>
      <trkpt lat="40.25049" lon="9.60427">
        <ele>389.2</ele>
        <time>2012-11-05T16:06:46Z</time>
      </trkpt>
      <trkpt lat="40.25055" lon="9.60433">
        <ele>388</ele>
        <time>2012-11-05T16:06:47Z</time>
      </trkpt>
      <trkpt lat="40.25058" lon="9.6044">
        <ele>387.2</ele>
        <time>2012-11-05T16:06:48Z</time>
      </trkpt>
      <trkpt lat="40.25058" lon="9.6047">
        <ele>385.1</ele>
        <time>2012-11-05T16:06:51Z</time>
      </trkpt>
      <trkpt lat="40.25067" lon="9.605">
        <ele>383.9</ele>
        <time>2012-11-05T16:06:54Z</time>
      </trkpt>
      <trkpt lat="40.25072" lon="9.60512">
        <ele>382.6</ele>
        <time>2012-11-05T16:06:55Z</time>
      </trkpt>
      <trkpt lat="40.25112" lon="9.60562">
        <ele>375.9</ele>
        <time>2012-11-05T16:07:05Z</time>
      </trkpt>
      <trkpt lat="40.25129" lon="9.60574">
        <ele>374.3</ele>
        <time>2012-11-05T16:07:08Z</time>
      </trkpt>
      <trkpt lat="40.25148" lon="9.60577">
        <ele>373.5</ele>
        <time>2012-11-05T16:07:11Z</time>
      </trkpt>
      <trkpt lat="40.25228" lon="9.60559">
        <ele>368.8</ele>
        <time>2012-11-05T16:07:21Z</time>
      </trkpt>
      <trkpt lat="40.25255" lon="9.60542">
        <ele>366</ele>
        <time>2012-11-05T16:07:24Z</time>
      </trkpt>
      <trkpt lat="40.2526" lon="9.60533">
        <ele>365.4</ele>
        <time>2012-11-05T16:07:25Z</time>
      </trkpt>
      <trkpt lat="40.25268" lon="9.60501">
        <ele>362.6</ele>
        <time>2012-11-05T16:07:28Z</time>
      </trkpt>
      <trkpt lat="40.25271" lon="9.60494">
        <ele>362.7</ele>
        <time>2012-11-05T16:07:29Z</time>
      </trkpt>
      <trkpt lat="40.25277" lon="9.60495">
        <ele>362.7</ele>
        <time>2012-11-05T16:07:30Z</time>
      </trkpt>
      <trkpt lat="40.25283" lon="9.60501">
        <ele>362</ele>
        <time>2012-11-05T16:07:31Z</time>
      </trkpt>
      <trkpt lat="40.25291" lon="9.60516">
        <ele>360.7</ele>
        <time>2012-11-05T16:07:33Z</time>
      </trkpt>
      <trkpt lat="40.25303" lon="9.6055">
        <ele>360</ele>
        <time>2012-11-05T16:07:37Z</time>
      </trkpt>
      <trkpt lat="40.25306" lon="9.60564">
        <ele>359.1</ele>
        <time>2012-11-05T16:07:39Z</time>
      </trkpt>
      <trkpt lat="40.25304" lon="9.60587">
        <ele>358.3</ele>
        <time>2012-11-05T16:07:42Z</time>
      </trkpt>
      <trkpt lat="40.25306" lon="9.60597">
        <ele>358.5</ele>
        <time>2012-11-05T16:07:43Z</time>
      </trkpt>
      <trkpt lat="40.25309" lon="9.60604">
        <ele>359.2</ele>
        <time>2012-11-05T16:07:44Z</time>
      </trkpt>
      <trkpt lat="40.25321" lon="9.60614">
        <ele>359.8</ele>
        <time>2012-11-05T16:07:46Z</time>
      </trkpt>
      <trkpt lat="40.2537" lon="9.6061">
        <ele>357.2</ele>
        <time>2012-11-05T16:07:54Z</time>
      </trkpt>
      <trkpt lat="40.25412" lon="9.60595">
        <ele>354.3</ele>
        <time>2012-11-05T16:08:02Z</time>
      </trkpt>
      <trkpt lat="40.25422" lon="9.60597">
        <ele>353.9</ele>
        <time>2012-11-05T16:08:04Z</time>
      </trkpt>
      <trkpt lat="40.25436" lon="9.60607">
        <ele>354.4</ele>
        <time>2012-11-05T16:08:07Z</time>
      </trkpt>
      <trkpt lat="40.25449" lon="9.60613">
        <ele>355</ele>
        <time>2012-11-05T16:08:10Z</time>
      </trkpt>
      <trkpt lat="40.25479" lon="9.60607">
        <ele>356.4</ele>
        <time>2012-11-05T16:08:17Z</time>
      </trkpt>
      <trkpt lat="40.25488" lon="9.60609">
        <ele>356.5</ele>
        <time>2012-11-05T16:08:19Z</time>
      </trkpt>
      <trkpt lat="40.25496" lon="9.60616">
        <ele>356.7</ele>
        <time>2012-11-05T16:08:21Z</time>
      </trkpt>
      <trkpt lat="40.25502" lon="9.6064">
        <ele>357.5</ele>
        <time>2012-11-05T16:08:25Z</time>
      </trkpt>
      <trkpt lat="40.25529" lon="9.60664">
        <ele>360.3</ele>
        <time>2012-11-05T16:08:32Z</time>
      </trkpt>
      <trkpt lat="40.25544" lon="9.60669">
        <ele>361.2</ele>
        <time>2012-11-05T16:08:35Z</time>
      </trkpt>
      <trkpt lat="40.25565" lon="9.60665">
        <ele>361.2</ele>
        <time>2012-11-05T16:08:38Z</time>
      </trkpt>
      <trkpt lat="40.25603" lon="9.60625">
        <ele>359.9</ele>
        <time>2012-11-05T15:06:00Z</time>
      </trkpt>
      <trkpt lat="40.25628" lon="9.60621">
        <ele>360.1</ele>
        <time>2012-11-05T16:08:53Z</time>
      </trkpt>
      <trkpt lat="40.2565" lon="9.60614">
        <ele>360.6</ele>
        <time>2012-11-05T16:08:58Z</time>
      </trkpt>
      <trkpt lat="40.25658" lon="9.60615">
        <ele>360.4</ele>
        <time>2012-11-05T16:09:00Z</time>
      </trkpt>
      <trkpt lat="40.25662" lon="9.60626">
        <ele>360.7</ele>
        <time>2012-11-05T15:06:00Z</time>
      </trkpt>
      <trkpt lat="40.25659" lon="9.60634">
        <ele>360.9</ele>
        <time>2012-11-05T16:09:05Z</time>
      </trkpt>
      <trkpt lat="40.25644" lon="9.60653">
        <ele>359.4</ele>
        <time>2012-11-05T16:09:11Z</time>
      </trkpt>
      <trkpt lat="40.25641" lon="9.60662">
        <ele>358.3</ele>
        <time>2012-11-05T16:09:13Z</time>
      </trkpt>
      <trkpt lat="40.25643" lon="9.60704">
        <ele>357.3</ele>
        <time>2012-11-05T16:09:22Z</time>
      </trkpt>
      <trkpt lat="40.2563" lon="9.60747">
        <ele>356.7</ele>
        <time>2012-11-05T16:09:33Z</time>
      </trkpt>
      <trkpt lat="40.25625" lon="9.60775">
        <ele>358.8</ele>
        <time>2012-11-05T15:06:00Z</time>
      </trkpt>
      <trkpt lat="40.25624" lon="9.60834">
        <ele>364.9</ele>
        <time>2012-11-05T16:09:52Z</time>
      </trkpt>
      <trkpt lat="40.25627" lon="9.60853">
        <ele>366.6</ele>
        <time>2012-11-05T15:06:00Z</time>
      </trkpt>
      <trkpt lat="40.25632" lon="9.60867">
        <ele>367.6</ele>
        <time>2012-11-05T15:06:00Z</time>
      </trkpt>
      <trkpt lat="40.25645" lon="9.60883">
        <ele>369.3</ele>
        <time>2012-11-05T15:06:00Z</time>
      </trkpt>
      <trkpt lat="40.25662" lon="9.60897">
        <ele>371.3</ele>
        <time>2012-11-05T15:06:00Z</time>
      </trkpt>
      <trkpt lat="40.25688" lon="9.60908">
        <ele>372.4</ele>
        <time>2012-11-05T16:10:22Z</time>
      </trkpt>
      <trkpt lat="40.25711" lon="9.60912">
        <ele>374.1</ele>
        <time>2012-11-05T15:06:00Z</time>
      </trkpt>
      <trkpt lat="40.25727" lon="9.60926">
        <ele>374.5</ele>
        <time>2012-11-05T16:10:34Z</time>
      </trkpt>
      <trkpt lat="40.25769" lon="9.6098">
        <ele>374.7</ele>
        <time>2012-11-05T16:10:43Z</time>
      </trkpt>
      <trkpt lat="40.25787" lon="9.61029">
        <ele>373.7</ele>
        <time>2012-11-05T16:10:48Z</time>
      </trkpt>
      <trkpt lat="40.258" lon="9.61035">
        <ele>373</ele>
        <time>2012-11-05T16:10:50Z</time>
      </trkpt>
      <trkpt lat="40.25837" lon="9.61034">
        <ele>369.7</ele>
        <time>2012-11-05T16:10:55Z</time>
      </trkpt>
      <trkpt lat="40.25852" lon="9.61041">
        <ele>368.8</ele>
        <time>2012-11-05T16:10:57Z</time>
      </trkpt>
      <trkpt lat="40.25867" lon="9.61052">
        <ele>368.2</ele>
        <time>2012-11-05T16:10:59Z</time>
      </trkpt>
      <trkpt lat="40.25873" lon="9.61059">
        <ele>368.2</ele>
        <time>2012-11-05T16:11:00Z</time>
      </trkpt>
      <trkpt lat="40.25885" lon="9.61088">
        <ele>367.7</ele>
        <time>2012-11-05T16:11:03Z</time>
      </trkpt>
      <trkpt lat="40.25902" lon="9.61107">
        <ele>365.7</ele>
        <time>2012-11-05T16:11:05Z</time>
      </trkpt>
      <trkpt lat="40.25921" lon="9.61122">
        <ele>363.4</ele>
        <time>2012-11-05T16:11:07Z</time>
      </trkpt>
      <trkpt lat="40.25969" lon="9.61171">
        <ele>357.9</ele>
        <time>2012-11-05T16:11:12Z</time>
      </trkpt>
      <trkpt lat="40.26025" lon="9.61235">
        <ele>350.1</ele>
        <time>2012-11-05T16:11:18Z</time>
      </trkpt>
      <trkpt lat="40.26048" lon="9.61275">
        <ele>346.3</ele>
        <time>2012-11-05T16:11:21Z</time>
      </trkpt>
      <trkpt lat="40.26057" lon="9.61302">
        <ele>344.2</ele>
        <time>2012-11-05T16:11:23Z</time>
      </trkpt>
      <trkpt lat="40.26056" lon="9.61316">
        <ele>343.4</ele>
        <time>2012-11-05T16:11:24Z</time>
      </trkpt>
      <trkpt lat="40.26037" lon="9.61381">
        <ele>338.5</ele>
        <time>2012-11-05T16:11:29Z</time>
      </trkpt>
      <trkpt lat="40.26035" lon="9.6141">
        <ele>336.9</ele>
        <time>2012-11-05T16:11:31Z</time>
      </trkpt>
      <trkpt lat="40.2605" lon="9.61464">
        <ele>331.7</ele>
        <time>2012-11-05T16:11:35Z</time>
      </trkpt>
      <trkpt lat="40.26062" lon="9.61487">
        <ele>329</ele>
        <time>2012-11-05T16:11:37Z</time>
      </trkpt>
      <trkpt lat="40.26071" lon="9.61495">
        <ele>327.7</ele>
        <time>2012-11-05T16:11:38Z</time>
      </trkpt>
      <trkpt lat="40.2609" lon="9.61502">
        <ele>325.8</ele>
        <time>2012-11-05T16:11:40Z</time>
      </trkpt>
      <trkpt lat="40.26128" lon="9.61491">
        <ele>322</ele>
        <time>2012-11-05T16:11:44Z</time>
      </trkpt>
      <trkpt lat="40.26152" lon="9.61488">
        <ele>320.8</ele>
        <time>2012-11-05T16:11:47Z</time>
      </trkpt>
      <trkpt lat="40.26167" lon="9.61493">
        <ele>319.6</ele>
        <time>2012-11-05T16:11:49Z</time>
      </trkpt>
      <trkpt lat="40.26199" lon="9.61512">
        <ele>316.4</ele>
        <time>2012-11-05T16:11:53Z</time>
      </trkpt>
      <trkpt lat="40.26236" lon="9.61526">
        <ele>313.7</ele>
        <time>2012-11-05T16:11:57Z</time>
      </trkpt>
      <trkpt lat="40.26265" lon="9.61543">
        <ele>311.7</ele>
        <time>2012-11-05T16:12:00Z</time>
      </trkpt>
      <trkpt lat="40.26404" lon="9.61596">
        <ele>301.6</ele>
        <time>2012-11-05T16:12:14Z</time>
      </trkpt>
      <trkpt lat="40.26434" lon="9.61601">
        <ele>299.8</ele>
        <time>2012-11-05T16:12:17Z</time>
      </trkpt>
      <trkpt lat="40.26472" lon="9.61601">
        <ele>298.3</ele>
        <time>2012-11-05T16:12:21Z</time>
      </trkpt>
      <trkpt lat="40.26543" lon="9.6159">
        <ele>294.8</ele>
        <time>2012-11-05T16:12:29Z</time>
      </trkpt>
      <trkpt lat="40.26569" lon="9.61583">
        <ele>294</ele>
        <time>2012-11-05T16:12:32Z</time>
      </trkpt>
      <trkpt lat="40.26599" lon="9.6156">
        <ele>292.7</ele>
        <time>2012-11-05T16:12:36Z</time>
      </trkpt>
      <trkpt lat="40.26666" lon="9.61489">
        <ele>289.2</ele>
        <time>2012-11-05T16:12:46Z</time>
      </trkpt>
      <trkpt lat="40.26701" lon="9.61457">
        <ele>287.4</ele>
        <time>2012-11-05T16:12:51Z</time>
      </trkpt>
      <trkpt lat="40.26718" lon="9.61448">
        <ele>286.3</ele>
        <time>2012-11-05T16:12:53Z</time>
      </trkpt>
      <trkpt lat="40.26735" lon="9.61442">
        <ele>285.4</ele>
        <time>2012-11-05T16:12:55Z</time>
      </trkpt>
      <trkpt lat="40.26786" lon="9.61441">
        <ele>285.5</ele>
        <time>2012-11-05T16:13:01Z</time>
      </trkpt>
      <trkpt lat="40.26794" lon="9.61438">
        <ele>285.5</ele>
        <time>2012-11-05T16:13:02Z</time>
      </trkpt>
      <trkpt lat="40.26801" lon="9.61431">
        <ele>284.4</ele>
        <time>2012-11-05T16:13:03Z</time>
      </trkpt>
      <trkpt lat="40.2682" lon="9.61409">
        <ele>283.6</ele>
        <time>2012-11-05T16:13:06Z</time>
      </trkpt>
      <trkpt lat="40.26827" lon="9.61394">
        <ele>283.6</ele>
        <time>2012-11-05T16:13:08Z</time>
      </trkpt>
      <trkpt lat="40.26833" lon="9.61366">
        <ele>283.3</ele>
        <time>2012-11-05T16:13:11Z</time>
      </trkpt>
      <trkpt lat="40.26833" lon="9.61343">
        <ele>282.7</ele>
        <time>2012-11-05T16:13:13Z</time>
      </trkpt>
      <trkpt lat="40.26831" lon="9.61332">
        <ele>282.7</ele>
        <time>2012-11-05T16:13:14Z</time>
      </trkpt>
      <trkpt lat="40.26824" lon="9.61311">
        <ele>282.1</ele>
        <time>2012-11-05T16:13:16Z</time>
      </trkpt>
      <trkpt lat="40.26797" lon="9.61266">
        <ele>281</ele>
        <time>2012-11-05T16:13:21Z</time>
      </trkpt>
      <trkpt lat="40.26796" lon="9.61259">
        <ele>281.1</ele>
        <time>2012-11-05T16:13:22Z</time>
      </trkpt>
      <trkpt lat="40.26805" lon="9.6125">
        <ele>280.8</ele>
        <time>2012-11-05T16:13:24Z</time>
      </trkpt>
      <trkpt lat="40.26824" lon="9.61243">
        <ele>280.9</ele>
        <time>2012-11-05T15:06:00Z</time>
      </trkpt>
      <trkpt lat="40.26854" lon="9.61214">
        <ele>278.5</ele>
        <time>2012-11-05T16:13:35Z</time>
      </trkpt>
      <trkpt lat="40.26902" lon="9.61179">
        <ele>277</ele>
        <time>2012-11-05T16:13:43Z</time>
      </trkpt>
      <trkpt lat="40.26912" lon="9.61167">
        <ele>277</ele>
        <time>2012-11-05T16:13:45Z</time>
      </trkpt>
      <trkpt lat="40.2692" lon="9.61151">
        <ele>276.9</ele>
        <time>2012-11-05T16:13:47Z</time>
      </trkpt>
      <trkpt lat="40.26922" lon="9.61133">
        <ele>276.6</ele>
        <time>2012-11-05T16:13:49Z</time>
      </trkpt>
      <trkpt lat="40.26913" lon="9.61091">
        <ele>275</ele>
        <time>2012-11-05T16:13:53Z</time>
      </trkpt>
      <trkpt lat="40.26912" lon="9.61068">
        <ele>274.2</ele>
        <time>2012-11-05T16:13:55Z</time>
      </trkpt>
      <trkpt lat="40.26921" lon="9.61049">
        <ele>274.5</ele>
        <time>2012-11-05T16:13:57Z</time>
      </trkpt>
      <trkpt lat="40.26927" lon="9.61044">
        <ele>273.9</ele>
        <time>2012-11-05T16:13:58Z</time>
      </trkpt>
      <trkpt lat="40.26939" lon="9.61047">
        <ele>272.1</ele>
        <time>2012-11-05T15:06:00Z</time>
      </trkpt>
      <trkpt lat="40.26944" lon="9.61054">
        <ele>271.4</ele>
        <time>2012-11-05T16:14:14Z</time>
      </trkpt>
      <trkpt lat="40.2695" lon="9.6107">
        <ele>270.5</ele>
        <time>2012-11-05T16:14:18Z</time>
      </trkpt>
      <trkpt lat="40.26964" lon="9.61083">
        <ele>269.8</ele>
        <time>2012-11-05T16:14:22Z</time>
      </trkpt>
      <trkpt lat="40.26974" lon="9.61107">
        <ele>269.5</ele>
        <time>2012-11-05T16:14:26Z</time>
      </trkpt>
      <trkpt lat="40.27004" lon="9.6114">
        <ele>267.3</ele>
        <time>2012-11-05T16:14:32Z</time>
      </trkpt>
      <trkpt lat="40.27025" lon="9.61151">
        <ele>266.6</ele>
        <time>2012-11-05T16:14:36Z</time>
      </trkpt>
      <trkpt lat="40.27043" lon="9.61149">
        <ele>265.2</ele>
        <time>2012-11-05T16:14:39Z</time>
      </trkpt>
      <trkpt lat="40.27057" lon="9.61142">
        <ele>262.6</ele>
        <time>2012-11-05T16:14:41Z</time>
      </trkpt>
      <trkpt lat="40.27068" lon="9.61143">
        <ele>262.3</ele>
        <time>2012-11-05T16:14:43Z</time>
      </trkpt>
      <trkpt lat="40.27088" lon="9.61166">
        <ele>261.2</ele>
        <time>2012-11-05T16:14:48Z</time>
      </trkpt>
      <trkpt lat="40.27136" lon="9.61191">
        <ele>258.9</ele>
        <time>2012-11-05T16:14:56Z</time>
      </trkpt>
      <trkpt lat="40.27163" lon="9.61217">
        <ele>256.7</ele>
        <time>2012-11-05T16:15:02Z</time>
      </trkpt>
      <trkpt lat="40.27167" lon="9.61228">
        <ele>256.8</ele>
        <time>2012-11-05T16:15:04Z</time>
      </trkpt>
      <trkpt lat="40.27166" lon="9.61252">
        <ele>256.8</ele>
        <time>2012-11-05T16:15:08Z</time>
      </trkpt>
      <trkpt lat="40.27169" lon="9.61268">
        <ele>255</ele>
        <time>2012-11-05T16:15:11Z</time>
      </trkpt>
      <trkpt lat="40.27159" lon="9.61327">
        <ele>251.7</ele>
        <time>2012-11-05T16:15:17Z</time>
      </trkpt>
      <trkpt lat="40.27162" lon="9.61355">
        <ele>250.3</ele>
        <time>2012-11-05T16:15:21Z</time>
      </trkpt>
      <trkpt lat="40.27167" lon="9.61366">
        <ele>249.6</ele>
        <time>2012-11-05T15:06:00Z</time>
      </trkpt>
      <trkpt lat="40.27177" lon="9.61373">
        <ele>247.8</ele>
        <time>2012-11-05T16:15:26Z</time>
      </trkpt>
      <trkpt lat="40.27182" lon="9.61388">
        <ele>244.9</ele>
        <time>2012-11-05T16:15:29Z</time>
      </trkpt>
      <trkpt lat="40.27191" lon="9.614">
        <ele>242</ele>
        <time>2012-11-05T16:15:32Z</time>
      </trkpt>
      <trkpt lat="40.27217" lon="9.61423">
        <ele>235.6</ele>
        <time>2012-11-05T16:15:37Z</time>
      </trkpt>
      <trkpt lat="40.27222" lon="9.61446">
        <ele>234.8</ele>
        <time>2012-11-05T16:15:40Z</time>
      </trkpt>
      <trkpt lat="40.27229" lon="9.61463">
        <ele>234.5</ele>
        <time>2012-11-05T16:15:42Z</time>
      </trkpt>
      <trkpt lat="40.27241" lon="9.61483">
        <ele>231.5</ele>
        <time>2012-11-05T16:15:45Z</time>
      </trkpt>
      <trkpt lat="40.27255" lon="9.61494">
        <ele>227.9</ele>
        <time>2012-11-05T15:06:00Z</time>
      </trkpt>
      <trkpt lat="40.27257" lon="9.61502">
        <ele>226.4</ele>
        <time>2012-11-05T15:06:00Z</time>
      </trkpt>
      <trkpt lat="40.27258" lon="9.61508">
        <ele>225.4</ele>
        <time>2012-11-05T16:15:51Z</time>
      </trkpt>
      <trkpt lat="40.27243" lon="9.61547">
        <ele>222</ele>
        <time>2012-11-05T16:15:57Z</time>
      </trkpt>
      <trkpt lat="40.27217" lon="9.61586">
        <ele>216.6</ele>
        <time>2012-11-05T16:16:02Z</time>
      </trkpt>
      <trkpt lat="40.27202" lon="9.61604">
        <ele>214.6</ele>
        <time>2012-11-05T16:16:05Z</time>
      </trkpt>
      <trkpt lat="40.27198" lon="9.61613">
        <ele>211.9</ele>
        <time>2012-11-05T16:16:06Z</time>
      </trkpt>
      <trkpt lat="40.27195" lon="9.61631">
        <ele>208.5</ele>
        <time>2012-11-05T16:16:08Z</time>
      </trkpt>
      <trkpt lat="40.27197" lon="9.61653">
        <ele>205.6</ele>
        <time>2012-11-05T16:16:11Z</time>
      </trkpt>
      <trkpt lat="40.27207" lon="9.61672">
        <ele>202.4</ele>
        <time>2012-11-05T16:16:14Z</time>
      </trkpt>
      <trkpt lat="40.27224" lon="9.61687">
        <ele>198.6</ele>
        <time>2012-11-05T16:16:17Z</time>
      </trkpt>
      <trkpt lat="40.27244" lon="9.61696">
        <ele>196.5</ele>
        <time>2012-11-05T16:16:20Z</time>
      </trkpt>
      <trkpt lat="40.27269" lon="9.61697">
        <ele>194.3</ele>
        <time>2012-11-05T16:16:24Z</time>
      </trkpt>
      <trkpt lat="40.27301" lon="9.61712">
        <ele>191</ele>
        <time>2012-11-05T16:16:29Z</time>
      </trkpt>
      <trkpt lat="40.27317" lon="9.61727">
        <ele>189</ele>
        <time>2012-11-05T16:16:32Z</time>
      </trkpt>
      <trkpt lat="40.27337" lon="9.61738">
        <ele>187.2</ele>
        <time>2012-11-05T16:16:35Z</time>
      </trkpt>
      <trkpt lat="40.2738" lon="9.61758">
        <ele>184.9</ele>
        <time>2012-11-05T16:16:41Z</time>
      </trkpt>
      <trkpt lat="40.27393" lon="9.61761">
        <ele>184</ele>
        <time>2012-11-05T16:16:43Z</time>
      </trkpt>
      <trkpt lat="40.27424" lon="9.61759">
        <ele>182.9</ele>
        <time>2012-11-05T16:16:47Z</time>
      </trkpt>
      <trkpt lat="40.27442" lon="9.61768">
        <ele>182.8</ele>
        <time>2012-11-05T16:16:50Z</time>
      </trkpt>
      <trkpt lat="40.27465" lon="9.61772">
        <ele>181</ele>
        <time>2012-11-05T15:06:00Z</time>
      </trkpt>
      <trkpt lat="40.27478" lon="9.61766">
        <ele>179</ele>
        <time>2012-11-05T15:06:00Z</time>
      </trkpt>
      <trkpt lat="40.27485" lon="9.61772">
        <ele>178.5</ele>
        <time>2012-11-05T16:16:59Z</time>
      </trkpt>
      <trkpt lat="40.27508" lon="9.61777">
        <ele>176.1</ele>
        <time>2012-11-05T16:17:03Z</time>
      </trkpt>
      <trkpt lat="40.27581" lon="9.61829">
        <ele>168.9</ele>
        <time>2012-11-05T16:17:15Z</time>
      </trkpt>
      <trkpt lat="40.2762" lon="9.61878">
        <ele>168</ele>
        <time>2012-11-05T16:17:23Z</time>
      </trkpt>
      <trkpt lat="40.27626" lon="9.61883">
        <ele>167.7</ele>
        <time>2012-11-05T16:17:24Z</time>
      </trkpt>
      <trkpt lat="40.27643" lon="9.61887">
        <ele>166.7</ele>
        <time>2012-11-05T16:17:27Z</time>
      </trkpt>
      <trkpt lat="40.2765" lon="9.61891">
        <ele>165.9</ele>
        <time>2012-11-05T16:17:29Z</time>
      </trkpt>
      <trkpt lat="40.27668" lon="9.61914">
        <ele>164.7</ele>
        <time>2012-11-05T16:17:35Z</time>
      </trkpt>
      <trkpt lat="40.27696" lon="9.61966">
        <ele>162.3</ele>
        <time>2012-11-05T16:17:42Z</time>
      </trkpt>
      <trkpt lat="40.27712" lon="9.6199">
        <ele>162.4</ele>
        <time>2012-11-05T16:17:46Z</time>
      </trkpt>
      <trkpt lat="40.27719" lon="9.62003">
        <ele>162.4</ele>
        <time>2012-11-05T16:17:48Z</time>
      </trkpt>
      <trkpt lat="40.27741" lon="9.62029">
        <ele>160.2</ele>
        <time>2012-11-05T16:17:53Z</time>
      </trkpt>
      <trkpt lat="40.27746" lon="9.62039">
        <ele>158.5</ele>
        <time>2012-11-05T16:17:55Z</time>
      </trkpt>
      <trkpt lat="40.27747" lon="9.62062">
        <ele>155.7</ele>
        <time>2012-11-05T16:17:58Z</time>
      </trkpt>
      <trkpt lat="40.27752" lon="9.62085">
        <ele>154.4</ele>
        <time>2012-11-05T16:18:01Z</time>
      </trkpt>
      <trkpt lat="40.27746" lon="9.62136">
        <ele>148.9</ele>
        <time>2012-11-05T16:18:06Z</time>
      </trkpt>
      <trkpt lat="40.27739" lon="9.6216">
        <ele>147.1</ele>
        <time>2012-11-05T16:18:09Z</time>
      </trkpt>
      <trkpt lat="40.27739" lon="9.62184">
        <ele>145.4</ele>
        <time>2012-11-05T16:18:12Z</time>
      </trkpt>
      <trkpt lat="40.27744" lon="9.6221">
        <ele>141.9</ele>
        <time>2012-11-05T15:06:00Z</time>
      </trkpt>
      <trkpt lat="40.27755" lon="9.62215">
        <ele>141.3</ele>
        <time>2012-11-05T15:06:00Z</time>
      </trkpt>
      <trkpt lat="40.27768" lon="9.62232">
        <ele>139.9</ele>
        <time>2012-11-05T16:18:25Z</time>
      </trkpt>
      <trkpt lat="40.27769" lon="9.62235">
        <ele>139.7</ele>
        <time>2012-11-05T15:06:00Z</time>
      </trkpt>
      <trkpt lat="40.27762" lon="9.62244">
        <ele>139.1</ele>
        <time>2012-11-05T15:06:00Z</time>
      </trkpt>
      <trkpt lat="40.27762" lon="9.62255">
        <ele>137.3</ele>
        <time>2012-11-05T16:18:36Z</time>
      </trkpt>
      <trkpt lat="40.27765" lon="9.6226">
        <ele>136.6</ele>
        <time>2012-11-05T15:06:00Z</time>
      </trkpt>
      <trkpt lat="40.27775" lon="9.62266">
        <ele>134.7</ele>
        <time>2012-11-05T16:18:40Z</time>
      </trkpt>
      <trkpt lat="40.27778" lon="9.62271">
        <ele>133.8</ele>
        <time>2012-11-05T16:18:42Z</time>
      </trkpt>
      <trkpt lat="40.27775" lon="9.62283">
        <ele>132</ele>
        <time>2012-11-05T15:06:00Z</time>
      </trkpt>
      <trkpt lat="40.27763" lon="9.62302">
        <ele>130.2</ele>
        <time>2012-11-05T16:18:50Z</time>
      </trkpt>
      <trkpt lat="40.27762" lon="9.62316">
        <ele>130.3</ele>
        <time>2012-11-05T16:18:52Z</time>
      </trkpt>
      <trkpt lat="40.27765" lon="9.62352">
        <ele>128.9</ele>
        <time>2012-11-05T15:06:00Z</time>
      </trkpt>
      <trkpt lat="40.27778" lon="9.62366">
        <ele>127.9</ele>
        <time>2012-11-05T16:19:04Z</time>
      </trkpt>
      <trkpt lat="40.27777" lon="9.62371">
        <ele>127.7</ele>
        <time>2012-11-05T15:06:00Z</time>
      </trkpt>
    </trkseg>
  </trk>
</gpx>